Time,TemperatureF,DewpointF,PressureIn,WindDirection,WindDirectionDegrees,WindSpeedMPH,WindSpeedGustMPH,Humidity,HourlyPrecipIn,Conditions,Clouds,dailyrainin,SoftwareType,DateUTC
2013-02-21 00:00:00,5.0,-2.0,30.43,NE,35,3.0,4.0,72,0.00,,,0.00,VWS V15.00,2013-02-21 06:00:00,
2013-02-21 00:03:00,5.0,-2.3,30.43,NE,35,2.0,4.0,71,0.00,,CLR,0.00,VWS V14.01,2013-02-21 06:03:00,
2013-02-21 00:09:00,5.2,-2.1,30.43,NE,37,3.0,4.0,71,0.00,,CLR,0.00,VWS V14.01,2013-02-21 06:09:00,
2013-02-21 00:14:00,5.0,-2.6,30.43,NE,54,3.0,6.0,70,0.00,,CLR,0.00,VWS V14.01,2013-02-21 06:14:00,
2013-02-21 00:15:00,4.7,-3.2,30.41,NE,55,3.0,7.0,69,0.00,,,0.00,VWS V15.00,2013-02-21 06:15:00,
2013-02-21 00:19:00,4.3,-3.6,30.41,NE,55,4.0,5.0,69,0.00,,CLR,0.00,VWS V14.01,2013-02-21 06:19:00,
2013-02-21 00:24:00,3.2,-5.0,30.41,NE,56,3.0,6.0,68,0.00,,CLR,0.00,VWS V14.01,2013-02-21 06:24:00,
2013-02-21 00:29:00,2.2,-5.6,30.41,ENE,57,3.0,6.0,69,0.00,,CLR,0.00,VWS V14.01,2013-02-21 06:29:00,
2013-02-21 00:30:00,1.8,-5.7,30.42,ENE,58,4.0,6.0,70,0.00,,,0.00,VWS V15.00,2013-02-21 06:30:00,
2013-02-21 00:34:00,1.7,-5.8,30.42,ENE,60,4.0,6.0,70,0.00,,CLR,0.00,VWS V14.01,2013-02-21 06:34:00,
2013-02-21 00:39:00,2.2,-4.4,30.42,ENE,61,6.0,6.0,73,0.00,,CLR,0.00,VWS V14.01,2013-02-21 06:39:00,
2013-02-21 00:44:00,3.4,-2.7,30.42,ENE,61,4.0,6.0,75,0.00,,CLR,0.00,VWS V14.01,2013-02-21 06:44:00,
2013-02-21 00:45:00,3.7,-2.4,30.42,ENE,61,4.0,6.0,75,0.00,,,0.00,VWS V15.00,2013-02-21 06:45:00,
2013-02-21 00:49:00,3.7,-2.7,30.42,ENE,61,3.0,4.0,74,0.00,,CLR,0.00,VWS V14.01,2013-02-21 06:49:00,
2013-02-21 00:54:00,3.4,-3.9,30.42,ENE,61,1.0,4.0,71,0.00,,CLR,0.00,VWS V14.01,2013-02-21 06:54:00,
2013-02-21 00:59:00,2.8,-4.4,30.42,ENE,61,0.0,4.0,71,0.00,,CLR,0.00,VWS V14.01,2013-02-21 06:59:00,
2013-02-21 01:00:00,2.2,-5.3,30.43,ENE,61,0.0,4.0,70,0.00,,,0.00,VWS V15.00,2013-02-21 07:00:00,
2013-02-21 01:04:00,1.8,-5.7,30.43,ENE,61,0.0,0.0,70,0.00,,SCT120,0.00,VWS V14.01,2013-02-21 07:04:00,
2013-02-21 01:09:00,1.5,-5.4,30.43,ENE,61,0.0,0.0,72,0.00,,SCT120,0.00,VWS V14.01,2013-02-21 07:09:00,
2013-02-21 01:14:00,1.1,-5.5,30.43,ENE,61,0.0,0.0,73,0.00,,SCT120,0.00,VWS V14.01,2013-02-21 07:14:00,
2013-02-21 01:15:00,0.9,-5.7,30.43,ENE,61,0.0,0.0,73,0.00,,,0.00,VWS V15.00,2013-02-21 07:15:00,
2013-02-21 01:19:00,0.5,-6.4,30.43,ENE,61,0.0,0.0,72,0.00,,SCT120,0.00,VWS V14.01,2013-02-21 07:19:00,
2013-02-21 01:24:00,0.1,-6.6,30.43,ENE,61,0.0,0.0,73,0.00,,SCT120,0.00,VWS V14.01,2013-02-21 07:24:00,
2013-02-21 01:29:00,-0.2,-6.5,30.43,ENE,61,0.0,0.0,74,0.00,,SCT120,0.00,VWS V14.01,2013-02-21 07:29:00,
2013-02-21 01:30:00,-0.4,-6.4,30.43,ENE,61,0.0,0.0,75,0.00,,,0.00,VWS V15.00,2013-02-21 07:30:00,
2013-02-21 01:34:00,-0.2,-5.9,30.43,ENE,61,0.0,0.0,76,0.00,,SCT110,0.00,VWS V14.01,2013-02-21 07:34:00,
2013-02-21 01:39:00,0.3,-5.2,30.43,ENE,61,0.0,0.0,77,0.00,,SCT110,0.00,VWS V14.01,2013-02-21 07:39:00,
2013-02-21 01:44:00,0.7,-4.8,30.43,NE,55,4.0,4.0,77,0.00,,SCT110,0.00,VWS V14.01,2013-02-21 07:44:00,
2013-02-21 01:45:00,0.9,-4.9,30.42,NE,54,4.0,5.0,76,0.00,,,0.00,VWS V15.00,2013-02-21 07:45:00,
2013-02-21 01:49:00,0.9,-4.6,30.42,NE,53,4.0,5.0,77,0.00,,SCT110,0.00,VWS V14.01,2013-02-21 07:49:00,
2013-02-21 01:54:00,1.3,-4.2,30.42,NE,50,4.0,5.0,77,0.00,,SCT110,0.00,VWS V14.01,2013-02-21 07:54:00,
2013-02-21 02:00:00,1.7,-3.6,30.42,NE,50,0.0,5.0,78,0.00,,SCT110,0.00,VWS V14.01,2013-02-21 08:00:00,
2013-02-21 02:05:00,1.8,-3.7,30.43,NE,50,0.0,0.0,77,0.00,,SCT120,0.00,VWS V14.01,2013-02-21 08:05:00,
2013-02-21 02:10:00,-0.6,-7.4,30.43,NE,50,0.0,0.0,72,0.00,,SCT120,0.00,VWS V14.01,2013-02-21 08:10:00,
2013-02-21 02:15:00,-2.0,-8.8,30.43,NE,50,0.0,0.0,72,0.00,,SCT120,0.00,VWS V14.01,2013-02-21 08:15:00,
2013-02-21 02:20:00,-2.2,-8.2,30.44,NE,50,0.0,0.0,75,0.00,,SCT120,0.00,VWS V14.01,2013-02-21 08:20:00,
2013-02-21 02:25:00,-1.8,-7.2,30.44,NE,50,0.0,0.0,77,0.00,,SCT120,0.00,VWS V14.01,2013-02-21 08:25:00,
2013-02-21 02:30:00,-1.6,-6.8,30.44,NE,50,0.0,0.0,78,0.00,,SCT120,0.00,VWS V14.01,2013-02-21 08:30:00,
2013-02-21 02:35:00,-0.8,-5.7,30.44,NE,50,0.0,0.0,79,0.00,,SCT120,0.00,VWS V14.01,2013-02-21 08:35:00,
2013-02-21 02:40:00,-2.2,-7.9,30.44,NE,50,0.0,0.0,76,0.00,,SCT120,0.00,VWS V14.01,2013-02-21 08:40:00,
2013-02-21 02:45:00,-2.8,-8.5,30.44,NE,50,0.0,0.0,76,0.00,,SCT120,0.00,VWS V14.01,2013-02-21 08:45:00,
2013-02-21 02:50:00,-2.6,-7.8,30.44,NE,50,0.0,0.0,78,0.00,,SCT120,0.00,VWS V14.01,2013-02-21 08:50:00,
2013-02-21 02:55:00,-2.2,-7.1,30.44,NE,50,0.0,0.0,79,0.00,,SCT120,0.00,VWS V14.01,2013-02-21 08:55:00,
2013-02-21 03:00:00,-2.0,-6.9,30.44,NE,50,0.0,0.0,79,0.00,,SCT120,0.00,VWS V14.01,2013-02-21 09:00:00,
2013-02-21 03:05:00,-2.8,-8.2,30.44,NE,50,0.0,0.0,77,0.00,,BKN120,0.00,VWS V14.01,2013-02-21 09:05:00,
2013-02-21 03:10:00,-4.1,-10.0,30.44,NE,50,0.0,0.0,75,0.00,,BKN120,0.00,VWS V14.01,2013-02-21 09:10:00,
2013-02-21 03:15:00,-4.1,-9.5,30.44,NE,50,0.0,0.0,77,0.00,,BKN120,0.00,VWS V14.01,2013-02-21 09:15:00,
2013-02-21 03:20:00,-3.3,-8.2,30.45,NE,50,0.0,0.0,79,0.00,,BKN120,0.00,VWS V14.01,2013-02-21 09:20:00,
2013-02-21 03:25:00,-3.1,-8.0,30.45,NE,50,0.0,0.0,79,0.00,,BKN120,0.00,VWS V14.01,2013-02-21 09:25:00,
2013-02-21 03:30:00,-3.7,-8.8,30.45,NE,50,0.0,0.0,78,0.00,,BKN120,0.00,VWS V14.01,2013-02-21 09:30:00,
2013-02-21 03:35:00,-4.1,-9.2,30.45,NE,50,0.0,0.0,78,0.00,,OVC120,0.00,VWS V14.01,2013-02-21 09:35:00,
2013-02-21 03:40:00,-4.1,-9.2,30.45,NE,50,0.0,0.0,78,0.00,,OVC120,0.00,VWS V14.01,2013-02-21 09:40:00,
2013-02-21 03:45:00,-5.6,-11.2,30.45,NE,50,0.0,0.0,76,0.00,,OVC120,0.00,VWS V14.01,2013-02-21 09:45:00,
2013-02-21 03:50:00,-5.9,-11.2,30.45,NE,50,0.0,0.0,77,0.00,,OVC120,0.00,VWS V14.01,2013-02-21 09:50:00,
2013-02-21 03:55:00,-5.4,-10.2,30.45,NE,50,0.0,0.0,79,0.00,,OVC120,0.00,VWS V14.01,2013-02-21 09:55:00,
2013-02-21 04:00:00,-4.6,-9.4,30.45,NE,50,0.0,0.0,79,0.00,,OVC120,0.00,VWS V14.01,2013-02-21 10:00:00,
2013-02-21 04:05:00,-4.3,-8.9,30.45,NE,50,0.0,0.0,80,0.00,,BKN120,0.00,VWS V14.01,2013-02-21 10:05:00,
2013-02-21 04:10:00,-4.3,-9.1,30.45,NE,50,0.0,0.0,79,0.00,,BKN120,0.00,VWS V14.01,2013-02-21 10:10:00,
2013-02-21 04:15:00,-4.6,-9.7,30.45,NE,50,0.0,0.0,78,0.00,,BKN120,0.00,VWS V14.01,2013-02-21 10:15:00,
2013-02-21 04:20:00,-4.6,-9.7,30.46,NE,50,0.0,0.0,78,0.00,,BKN120,0.00,VWS V14.01,2013-02-21 10:20:00,
2013-02-21 04:25:00,-4.8,-10.1,30.46,NE,50,3.0,4.0,77,0.00,,BKN120,0.00,VWS V14.01,2013-02-21 10:25:00,
2013-02-21 04:30:00,-5.2,-10.8,30.46,NE,50,2.0,4.0,76,0.00,,BKN120,0.00,VWS V14.01,2013-02-21 10:30:00,
2013-02-21 04:36:00,-5.4,-11.0,30.46,NE,49,3.0,3.0,76,0.00,,BKN120,0.00,VWS V14.01,2013-02-21 10:36:00,
2013-02-21 04:41:00,-6.1,-11.9,30.46,NE,49,2.0,3.0,75,0.00,,BKN120,0.00,VWS V14.01,2013-02-21 10:41:00,
2013-02-21 04:45:00,-6.3,-11.9,30.46,NE,49,1.0,3.0,76,0.00,,,0.00,VWS V15.00,2013-02-21 10:45:00,
2013-02-21 04:46:00,-6.3,-11.9,30.46,NE,49,1.0,3.0,76,0.00,,BKN120,0.00,VWS V14.01,2013-02-21 10:46:00,
2013-02-21 04:51:00,-6.1,-11.4,30.46,NE,49,1.0,3.0,77,0.00,,BKN120,0.00,VWS V14.01,2013-02-21 10:51:00,
2013-02-21 04:56:00,-6.1,-11.4,30.46,NE,49,2.0,3.0,77,0.00,,BKN120,0.00,VWS V14.01,2013-02-21 10:56:00,
2013-02-21 05:00:00,-6.5,-12.1,30.46,NE,49,2.0,3.0,76,0.00,,,0.00,VWS V15.00,2013-02-21 11:00:00,
2013-02-21 05:01:00,-6.5,-12.1,30.46,NE,49,2.0,3.0,76,0.00,,BKN120,0.00,VWS V14.01,2013-02-21 11:01:00,
2013-02-21 05:06:00,-6.3,-11.4,30.46,NE,49,2.0,3.0,78,0.00,,BKN120,0.00,VWS V14.01,2013-02-21 11:06:00,
2013-02-21 05:11:00,-5.4,-10.2,30.46,NE,49,2.0,3.0,79,0.00,,BKN120,0.00,VWS V14.01,2013-02-21 11:11:00,
2013-02-21 05:15:00,-5.2,-10.3,30.46,NE,49,3.0,4.0,78,0.00,,,0.00,VWS V15.00,2013-02-21 11:15:00,
2013-02-21 05:16:00,-5.2,-10.3,30.46,NE,49,3.0,4.0,78,0.00,,BKN120,0.00,VWS V14.01,2013-02-21 11:16:00,
2013-02-21 05:21:00,-5.2,-10.5,30.46,NE,49,4.0,5.0,77,0.00,,BKN120,0.00,VWS V14.01,2013-02-21 11:21:00,
2013-02-21 05:26:00,-5.0,-10.4,30.46,NE,49,3.0,5.0,77,0.00,,BKN120,0.00,VWS V14.01,2013-02-21 11:26:00,
2013-02-21 05:30:00,-5.4,-11.0,30.44,NE,49,5.0,5.0,76,0.00,,,0.00,VWS V15.00,2013-02-21 11:30:00,
2013-02-21 05:31:00,-5.2,-10.8,30.44,NE,49,4.0,5.0,76,0.00,,BKN120,0.00,VWS V14.01,2013-02-21 11:31:00,
2013-02-21 05:36:00,-6.1,-11.9,30.44,NE,49,4.0,5.0,75,0.00,,BKN120,0.00,VWS V14.01,2013-02-21 11:36:00,
2013-02-21 05:41:00,-5.9,-11.5,30.44,NE,49,4.0,5.0,76,0.00,,BKN120,0.00,VWS V14.01,2013-02-21 11:41:00,
2013-02-21 05:45:00,-4.8,-9.9,30.44,NE,49,4.0,5.0,78,0.00,,,0.00,VWS V15.00,2013-02-21 11:45:00,
2013-02-21 05:46:00,-5.0,-10.4,30.44,NE,49,5.0,5.0,77,0.00,,BKN120,0.00,VWS V14.01,2013-02-21 11:46:00,
2013-02-21 05:51:00,-4.3,-9.7,30.44,NE,48,6.0,6.0,77,0.00,,BKN120,0.00,VWS V14.01,2013-02-21 11:51:00,
2013-02-21 05:56:00,-4.3,-9.7,30.44,NE,47,5.0,6.0,77,0.00,,BKN120,0.00,VWS V14.01,2013-02-21 11:56:00,
2013-02-21 06:00:00,-5.0,-10.6,30.42,NE,47,5.0,7.0,76,0.00,,,0.00,VWS V15.00,2013-02-21 12:00:00,
2013-02-21 06:01:00,-5.0,-10.6,30.42,NE,47,6.0,6.0,76,0.00,,BKN120,0.00,VWS V14.01,2013-02-21 12:01:00,
2013-02-21 06:06:00,-6.1,-12.2,30.42,NE,44,6.0,7.0,74,0.00,,SCT120,0.00,VWS V14.01,2013-02-21 12:06:00,
2013-02-21 06:11:00,-6.1,-11.7,30.42,NE,43,6.0,8.0,76,0.00,,SCT120,0.00,VWS V14.01,2013-02-21 12:11:00,
2013-02-21 06:15:00,-5.2,-10.5,30.40,NE,42,6.0,10.0,77,0.00,,,0.00,VWS V15.00,2013-02-21 12:15:00,
2013-02-21 06:16:00,-5.2,-10.5,30.40,NE,42,6.0,10.0,77,0.00,,SCT120,0.00,VWS V14.01,2013-02-21 12:16:00,
2013-02-21 06:21:00,-4.6,-9.7,30.40,NE,40,5.0,9.0,78,0.00,,SCT120,0.00,VWS V14.01,2013-02-21 12:21:00,
2013-02-21 06:26:00,-4.3,-9.7,30.40,NE,38,5.0,9.0,77,0.00,,SCT120,0.00,VWS V14.01,2013-02-21 12:26:00,
2013-02-21 06:30:00,-3.7,-8.8,30.38,NE,42,7.0,9.0,78,0.00,,,0.00,VWS V15.00,2013-02-21 12:30:00,
2013-02-21 06:31:00,-3.7,-8.8,30.38,NE,42,6.0,9.0,78,0.00,,SCT120,0.00,VWS V14.01,2013-02-21 12:31:00,
2013-02-21 06:36:00,-3.5,-8.6,30.38,NE,37,6.0,9.0,78,0.00,,SCT120,0.00,VWS V14.01,2013-02-21 12:36:00,
2013-02-21 06:41:00,-3.5,-8.6,30.38,NE,36,4.0,9.0,78,0.00,,SCT120,0.00,VWS V14.01,2013-02-21 12:41:00,
2013-02-21 06:45:00,-3.3,-8.4,30.38,NE,36,3.0,9.0,78,0.00,,,0.00,VWS V15.00,2013-02-21 12:45:00,
2013-02-21 06:46:00,-3.3,-8.4,30.38,NE,36,3.0,9.0,78,0.00,,SCT120,0.00,VWS V14.01,2013-02-21 12:46:00,
2013-02-21 06:52:00,-3.1,-8.2,30.38,NE,35,5.0,6.0,78,0.00,,SCT120,0.00,VWS V14.01,2013-02-21 12:52:00,
2013-02-21 06:57:00,-3.3,-8.4,30.38,NE,35,4.0,6.0,78,0.00,,SCT120,0.00,VWS V14.01,2013-02-21 12:57:00,
2013-02-21 07:00:00,-3.3,-8.4,30.38,NE,34,3.0,6.0,78,0.00,,,0.00,VWS V15.00,2013-02-21 13:00:00,
2013-02-21 07:02:00,-3.3,-8.4,30.38,NE,34,3.0,3.0,78,0.00,,SCT110,0.00,VWS V14.01,2013-02-21 13:02:00,
2013-02-21 07:07:00,-3.3,-8.4,30.38,NE,34,2.0,5.0,78,0.00,,SCT110,0.00,VWS V14.01,2013-02-21 13:07:00,
2013-02-21 07:12:00,-3.5,-8.9,30.38,NE,34,1.0,5.0,77,0.00,,SCT110,0.00,VWS V14.01,2013-02-21 13:12:00,
2013-02-21 07:15:00,-3.7,-9.1,30.43,NE,34,0.0,5.0,77,0.00,,,0.00,VWS V15.00,2013-02-21 13:15:00,
2013-02-21 07:17:00,-3.7,-9.1,30.43,NE,34,0.0,0.0,77,0.00,,SCT110,0.00,VWS V14.01,2013-02-21 13:17:00,
2013-02-21 07:22:00,-3.9,-9.3,30.43,NE,34,0.0,0.0,77,0.00,,SCT110,0.00,VWS V14.01,2013-02-21 13:22:00,
2013-02-21 07:27:00,-3.9,-9.3,30.43,NE,34,0.0,0.0,77,0.00,,SCT110,0.00,VWS V14.01,2013-02-21 13:27:00,
2013-02-21 07:30:00,-4.3,-9.9,30.49,ESE,110,6.0,7.0,76,0.00,,,0.00,VWS V15.00,2013-02-21 13:30:00,
2013-02-21 07:32:00,-4.3,-9.9,30.49,ESE,118,6.0,6.0,76,0.00,,SCT110,0.00,VWS V14.01,2013-02-21 13:32:00,
2013-02-21 07:37:00,-4.8,-10.4,30.49,SSE,147,4.0,6.0,76,0.00,,SCT110,0.00,VWS V14.01,2013-02-21 13:37:00,
2013-02-21 07:42:00,-4.6,-10.2,30.49,SSE,148,4.0,6.0,76,0.00,,SCT110,0.00,VWS V14.01,2013-02-21 13:42:00,
2013-02-21 07:45:00,-4.1,-9.5,30.49,SSE,148,4.0,6.0,77,0.00,,,0.00,VWS V15.00,2013-02-21 13:45:00,
2013-02-21 07:47:00,-4.1,-9.5,30.49,SSE,148,3.0,4.0,77,0.00,,SCT110,0.00,VWS V14.01,2013-02-21 13:47:00,
2013-02-21 07:52:00,-4.3,-9.9,30.49,SSE,148,0.0,4.0,76,0.00,,SCT110,0.00,VWS V14.01,2013-02-21 13:52:00,
2013-02-21 07:57:00,-4.1,-9.5,30.49,SSE,148,0.0,4.0,77,0.00,,SCT110,0.00,VWS V14.01,2013-02-21 13:57:00,
2013-02-21 08:00:00,-3.9,-9.3,30.49,SSE,148,0.0,4.0,77,0.00,,,0.00,VWS V15.00,2013-02-21 14:00:00,
2013-02-21 08:02:00,-3.9,-9.3,30.49,SSE,148,0.0,0.0,77,0.00,,CLR,0.00,VWS V14.01,2013-02-21 14:02:00,
2013-02-21 08:07:00,-3.3,-8.7,30.49,SSE,148,0.0,0.0,77,0.00,,CLR,0.00,VWS V14.01,2013-02-21 14:07:00,
2013-02-21 08:12:00,-3.1,-8.5,30.49,SSE,148,0.0,0.0,77,0.00,,CLR,0.00,VWS V14.01,2013-02-21 14:12:00,
2013-02-21 08:15:00,-2.8,-8.2,30.48,SSE,148,0.0,0.0,77,0.00,,,0.00,VWS V15.00,2013-02-21 14:15:00,
2013-02-21 08:17:00,-2.8,-8.2,30.48,SSE,148,0.0,0.0,77,0.00,,CLR,0.00,VWS V14.01,2013-02-21 14:17:00,
2013-02-21 08:22:00,-2.6,-8.0,30.48,SSE,148,0.0,0.0,77,0.00,,CLR,0.00,VWS V14.01,2013-02-21 14:22:00,
2013-02-21 08:27:00,-2.2,-7.6,30.48,SSE,148,0.0,0.0,77,0.00,,CLR,0.00,VWS V14.01,2013-02-21 14:27:00,
2013-02-21 08:30:00,-1.6,-6.8,30.48,SSE,148,0.0,0.0,78,0.00,,,0.00,VWS V15.00,2013-02-21 14:30:00,
2013-02-21 08:32:00,-1.4,-6.6,30.48,SSE,148,0.0,0.0,78,0.00,,CLR,0.00,VWS V14.01,2013-02-21 14:32:00,
2013-02-21 08:37:00,-1.0,-6.5,30.48,SSE,147,0.0,0.0,77,0.00,,CLR,0.00,VWS V14.01,2013-02-21 14:37:00,
2013-02-21 08:42:00,-0.6,-5.8,30.48,SSE,147,0.0,0.0,78,0.00,,CLR,0.00,VWS V14.01,2013-02-21 14:42:00,
2013-02-21 08:45:00,-0.2,-5.4,30.46,SE,129,0.0,1.0,78,0.00,,,0.00,VWS V15.00,2013-02-21 14:45:00,
2013-02-21 08:47:00,-0.2,-5.4,30.46,ESE,123,0.0,0.0,78,0.00,,CLR,0.00,VWS V14.01,2013-02-21 14:47:00,
2013-02-21 08:52:00,0.3,-4.9,30.46,ESE,109,2.0,3.0,78,0.00,,CLR,0.00,VWS V14.01,2013-02-21 14:52:00,
2013-02-21 08:57:00,0.7,-4.5,30.46,East,89,1.0,3.0,78,0.00,,CLR,0.00,VWS V14.01,2013-02-21 14:57:00,
2013-02-21 09:00:00,1.5,-3.5,30.45,East,84,2.0,3.0,79,0.00,,,0.00,VWS V15.00,2013-02-21 15:00:00,
2013-02-21 09:02:00,1.5,-3.5,30.45,East,83,2.0,2.0,79,0.00,,CLR,0.00,VWS V14.01,2013-02-21 15:02:00,
2013-02-21 09:07:00,2.2,-2.8,30.45,East,79,0.0,3.0,79,0.00,,CLR,0.00,VWS V14.01,2013-02-21 15:07:00,
2013-02-21 09:12:00,3.0,-2.0,30.45,ENE,78,0.0,3.0,79,0.00,,CLR,0.00,VWS V14.01,2013-02-21 15:12:00,
2013-02-21 09:15:00,3.7,-1.3,30.45,ENE,78,0.0,3.0,79,0.00,,,0.00,VWS V15.00,2013-02-21 15:15:00,
2013-02-21 09:17:00,3.7,-1.3,30.45,ENE,78,0.0,0.0,79,0.00,,CLR,0.00,VWS V14.01,2013-02-21 15:17:00,
2013-02-21 09:23:00,4.3,-1.0,30.45,ENE,77,1.0,3.0,78,0.00,,CLR,0.00,VWS V14.01,2013-02-21 15:23:00,
2013-02-21 09:28:00,4.8,-0.5,30.45,NE,45,2.0,4.0,78,0.00,,CLR,0.00,VWS V14.01,2013-02-21 15:28:00,
2013-02-21 09:30:00,5.6,0.0,30.43,NNE,33,0.0,4.0,77,0.00,,,0.00,VWS V15.00,2013-02-21 15:30:00,
2013-02-21 09:33:00,5.6,0.0,30.43,NNE,33,3.0,4.0,77,0.00,,CLR,0.00,VWS V14.01,2013-02-21 15:33:00,
2013-02-21 09:38:00,6.1,0.2,30.43,NNE,33,5.0,5.0,76,0.00,,CLR,0.00,VWS V14.01,2013-02-21 15:38:00,
2013-02-21 09:43:00,6.9,0.7,30.43,NNE,30,2.0,6.0,75,0.00,,CLR,0.00,VWS V14.01,2013-02-21 15:43:00,
2013-02-21 09:45:00,7.4,1.1,30.42,NNE,33,0.0,6.0,75,0.00,,,0.00,VWS V15.00,2013-02-21 15:45:00,
2013-02-21 09:48:00,7.6,1.1,30.42,NE,42,4.0,6.0,74,0.00,,CLR,0.00,VWS V14.01,2013-02-21 15:48:00,
2013-02-21 09:53:00,8.4,1.5,30.42,NE,42,9.0,12.0,73,0.00,,CLR,0.00,VWS V14.01,2013-02-21 15:53:00,
2013-02-21 09:58:00,9.0,1.2,30.42,NE,55,9.0,12.0,70,0.00,,CLR,0.00,VWS V14.01,2013-02-21 15:58:00,
2013-02-21 10:00:00,9.3,1.2,30.41,NE,52,2.0,12.0,69,0.00,,,0.00,VWS V15.00,2013-02-21 16:00:00,
2013-02-21 10:03:00,9.5,1.4,30.41,NE,52,3.0,3.0,69,0.00,,CLR,0.00,VWS V14.01,2013-02-21 16:03:00,
2013-02-21 10:08:00,10.0,1.6,30.41,NE,40,2.0,6.0,68,0.00,,CLR,0.00,VWS V14.01,2013-02-21 16:08:00,
2013-02-21 10:13:00,10.4,1.3,30.41,NE,56,5.0,12.0,66,0.00,,CLR,0.00,VWS V14.01,2013-02-21 16:13:00,
2013-02-21 10:15:00,10.9,1.5,30.41,ENE,75,0.0,12.0,65,0.00,,,0.00,VWS V15.00,2013-02-21 16:15:00,
2013-02-21 10:18:00,10.9,1.5,30.41,ENE,74,11.0,11.0,65,0.00,,CLR,0.00,VWS V14.01,2013-02-21 16:18:00,
2013-02-21 10:23:00,11.6,1.8,30.41,NE,53,6.0,11.0,64,0.00,,CLR,0.00,VWS V14.01,2013-02-21 16:23:00,
2013-02-21 10:28:00,11.9,1.4,30.41,NE,42,9.0,12.0,62,0.00,,CLR,0.00,VWS V14.01,2013-02-21 16:28:00,
2013-02-21 10:30:00,12.3,1.8,30.41,NE,47,4.0,12.0,62,0.00,,,0.00,VWS V15.00,2013-02-21 16:30:00,
2013-02-21 10:33:00,12.4,1.9,30.41,NE,48,3.0,5.0,62,0.00,,CLR,0.00,VWS V14.01,2013-02-21 16:33:00,
2013-02-21 10:38:00,13.1,2.2,30.41,NE,41,4.0,10.0,61,0.00,,CLR,0.00,VWS V14.01,2013-02-21 16:38:00,
2013-02-21 10:43:00,13.6,2.3,30.41,NE,55,9.0,10.0,60,0.00,,CLR,0.00,VWS V14.01,2013-02-21 16:43:00,
2013-02-21 10:45:00,13.6,1.6,30.41,ENE,57,7.0,11.0,58,0.00,,,0.00,VWS V15.00,2013-02-21 16:45:00,
2013-02-21 10:48:00,13.8,2.1,30.41,NE,54,7.0,7.0,59,0.00,,CLR,0.00,VWS V14.01,2013-02-21 16:48:00,
2013-02-21 10:53:00,13.8,2.1,30.41,ENE,58,3.0,7.0,59,0.00,,CLR,0.00,VWS V14.01,2013-02-21 16:53:00,
2013-02-21 10:58:00,14.1,2.0,30.41,ENE,75,5.0,12.0,58,0.00,,CLR,0.00,VWS V14.01,2013-02-21 16:58:00,
2013-02-21 11:00:00,14.4,2.3,30.41,ENE,71,4.0,12.0,58,0.00,,,0.00,VWS V15.00,2013-02-21 17:00:00,
2013-02-21 11:03:00,14.4,2.3,30.41,ENE,71,4.0,4.0,58,0.00,,CLR,0.00,VWS V14.01,2013-02-21 17:03:00,
2013-02-21 11:08:00,14.6,2.5,30.41,ENE,73,5.0,14.0,58,0.00,,CLR,0.00,VWS V14.01,2013-02-21 17:08:00,
2013-02-21 11:13:00,15.1,2.6,30.41,NE,49,5.0,14.0,57,0.00,,CLR,0.00,VWS V14.01,2013-02-21 17:13:00,
2013-02-21 11:15:00,15.4,2.9,30.41,East,86,6.0,14.0,57,0.00,,,0.00,VWS V15.00,2013-02-21 17:15:00,
2013-02-21 11:18:00,15.6,2.7,30.41,ENE,73,8.0,8.0,56,0.00,,CLR,0.00,VWS V14.01,2013-02-21 17:18:00,
2013-02-21 11:23:00,15.9,2.6,30.41,NE,37,5.0,8.0,55,0.00,,CLR,0.00,VWS V14.01,2013-02-21 17:23:00,
2013-02-21 11:28:00,16.5,3.2,30.41,ENE,66,4.0,10.0,55,0.00,,CLR,0.00,VWS V14.01,2013-02-21 17:28:00,
2013-02-21 11:30:00,16.9,3.1,30.40,ENE,57,5.0,10.0,54,0.00,,,0.00,VWS V15.00,2013-02-21 17:30:00,
2013-02-21 11:33:00,16.9,3.1,30.40,ENE,59,5.0,10.0,54,0.00,,CLR,0.00,VWS V14.01,2013-02-21 17:33:00,
2013-02-21 11:39:00,17.3,3.9,30.40,ENE,72,1.0,10.0,55,0.00,,CLR,0.00,VWS V14.01,2013-02-21 17:39:00,
2013-02-21 11:44:00,17.7,3.5,30.40,ENE,64,4.0,10.0,53,0.00,,CLR,0.00,VWS V14.01,2013-02-21 17:44:00,
2013-02-21 11:45:00,17.7,3.1,30.39,NE,42,6.0,10.0,52,0.00,,,0.00,VWS V15.00,2013-02-21 17:45:00,
2013-02-21 11:49:00,17.7,3.1,30.39,ENE,57,5.0,11.0,52,0.00,,CLR,0.00,VWS V14.01,2013-02-21 17:49:00,
2013-02-21 11:54:00,18.0,4.2,30.39,East,85,4.0,11.0,54,0.00,,CLR,0.00,VWS V14.01,2013-02-21 17:54:00,
2013-02-21 11:59:00,18.6,3.9,30.39,NE,44,2.0,11.0,52,0.00,,CLR,0.00,VWS V14.01,2013-02-21 17:59:00,
2013-02-21 12:00:00,18.9,4.2,30.38,ENE,78,11.0,11.0,52,0.00,,,0.00,VWS V15.00,2013-02-21 18:00:00,
2013-02-21 12:04:00,18.9,3.8,30.38,ENE,63,5.0,12.0,51,0.00,,CLR,0.00,VWS V14.01,2013-02-21 18:04:00,
2013-02-21 12:09:00,19.1,4.4,30.38,ENE,73,7.0,12.0,52,0.00,,CLR,0.00,VWS V14.01,2013-02-21 18:09:00,
2013-02-21 12:14:00,19.2,4.1,30.38,East,81,7.0,12.0,51,0.00,,CLR,0.00,VWS V14.01,2013-02-21 18:14:00,
2013-02-21 12:15:00,19.2,4.5,30.38,ENE,67,5.0,12.0,52,0.00,,,0.00,VWS V15.00,2013-02-21 18:15:00,
2013-02-21 12:19:00,19.2,4.1,30.38,ENE,67,2.0,5.0,51,0.00,,CLR,0.00,VWS V14.01,2013-02-21 18:19:00,
2013-02-21 12:24:00,19.7,4.5,30.38,ENE,74,4.0,9.0,51,0.00,,CLR,0.00,VWS V14.01,2013-02-21 18:24:00,
2013-02-21 12:29:00,19.9,5.1,30.38,NE,41,5.0,11.0,52,0.00,,CLR,0.00,VWS V14.01,2013-02-21 18:29:00,
2013-02-21 12:30:00,19.9,4.3,30.37,ENE,67,5.0,11.0,50,0.00,,,0.00,VWS V15.00,2013-02-21 18:30:00,
2013-02-21 12:34:00,20.0,4.4,30.37,ENE,68,7.0,8.0,50,0.00,,CLR,0.00,VWS V14.01,2013-02-21 18:34:00,
2013-02-21 12:39:00,20.2,5.4,30.37,ENE,68,5.0,9.0,52,0.00,,CLR,0.00,VWS V14.01,2013-02-21 18:39:00,
2013-02-21 12:44:00,20.5,5.7,30.37,East,89,1.0,9.0,52,0.00,,CLR,0.00,VWS V14.01,2013-02-21 18:44:00,
2013-02-21 12:45:00,20.6,5.3,30.36,NE,48,4.0,9.0,51,0.00,,,0.00,VWS V15.00,2013-02-21 18:45:00,
2013-02-21 12:49:00,20.6,5.8,30.36,NE,54,5.0,7.0,52,0.00,,CLR,0.00,VWS V14.01,2013-02-21 18:49:00,
2013-02-21 12:54:00,20.8,4.7,30.36,ENE,77,2.0,12.0,49,0.00,,CLR,0.00,VWS V14.01,2013-02-21 18:54:00,
2013-02-21 12:59:00,21.0,5.3,30.36,NE,52,2.0,12.0,50,0.00,,CLR,0.00,VWS V14.01,2013-02-21 18:59:00,
2013-02-21 13:00:00,21.0,5.3,30.34,North,10,9.0,12.0,50,0.00,,,0.00,VWS V15.00,2013-02-21 19:00:00,
2013-02-21 13:04:00,21.1,4.9,30.34,NNE,19,3.0,10.0,49,0.00,,CLR,0.00,VWS V14.01,2013-02-21 19:04:00,
2013-02-21 13:09:00,21.4,6.1,30.34,ENE,57,6.0,10.0,51,0.00,,CLR,0.00,VWS V14.01,2013-02-21 19:09:00,
2013-02-21 13:14:00,21.4,5.7,30.34,NNE,13,6.0,11.0,50,0.00,,CLR,0.00,VWS V14.01,2013-02-21 19:14:00,
2013-02-21 13:15:00,21.4,5.2,30.33,North,7,5.0,11.0,49,0.00,,,0.00,VWS V15.00,2013-02-21 19:15:00,
2013-02-21 13:19:00,21.6,5.8,30.33,NNE,27,5.0,12.0,50,0.00,,CLR,0.00,VWS V14.01,2013-02-21 19:19:00,
2013-02-21 13:24:00,21.6,6.3,30.33,NNE,17,3.0,12.0,51,0.00,,CLR,0.00,VWS V14.01,2013-02-21 19:24:00,
2013-02-21 13:29:00,22.1,6.8,30.33,North,0,0.0,12.0,51,0.00,,CLR,0.00,VWS V14.01,2013-02-21 19:29:00,
2013-02-21 13:30:00,22.2,6.0,30.32,NNE,21,5.0,12.0,49,0.00,,,0.00,VWS V15.00,2013-02-21 19:30:00,
2013-02-21 13:34:00,22.2,5.5,30.32,NNE,15,6.0,7.0,48,0.00,,CLR,0.00,VWS V14.01,2013-02-21 19:34:00,
2013-02-21 13:39:00,22.2,6.0,30.32,NNE,29,6.0,12.0,49,0.00,,CLR,0.00,VWS V14.01,2013-02-21 19:39:00,
2013-02-21 13:45:00,22.2,6.0,30.32,ENE,59,6.0,12.0,49,0.00,,CLR,0.00,VWS V14.01,2013-02-21 19:45:00,
2013-02-21 13:50:00,22.2,6.0,30.31,NE,37,4.0,6.0,49,0.00,,CLR,0.00,VWS V14.01,2013-02-21 19:50:00,
2013-02-21 13:55:00,22.2,6.0,30.31,NE,56,5.0,15.0,49,0.00,,CLR,0.00,VWS V14.01,2013-02-21 19:55:00,
2013-02-21 14:00:00,22.1,5.9,30.31,NE,40,3.0,15.0,49,0.00,,CLR,0.00,VWS V14.01,2013-02-21 20:00:00,
2013-02-21 14:05:00,22.4,6.6,30.31,NE,40,4.0,10.0,50,0.00,,CLR,0.00,VWS V14.01,2013-02-21 20:05:00,
2013-02-21 14:10:00,22.5,6.2,30.31,NNE,27,6.0,10.0,49,0.00,,CLR,0.00,VWS V14.01,2013-02-21 20:10:00,
2013-02-21 14:15:00,22.5,6.2,30.31,NNE,30,7.0,10.0,49,0.00,,CLR,0.00,VWS V14.01,2013-02-21 20:15:00,
2013-02-21 14:20:00,22.4,6.2,30.31,NNE,30,7.0,10.0,49,0.00,,CLR,0.00,VWS V14.01,2013-02-21 20:20:00,
2013-02-21 14:25:00,22.1,5.9,30.31,NNE,23,2.0,10.0,49,0.00,,CLR,0.00,VWS V14.01,2013-02-21 20:25:00,
2013-02-21 14:30:00,22.1,6.3,30.31,NNE,30,7.0,11.0,50,0.00,,CLR,0.00,VWS V14.01,2013-02-21 20:30:00,
2013-02-21 14:35:00,22.2,6.4,30.30,NNE,23,7.0,10.0,50,0.00,,CLR,0.00,VWS V14.01,2013-02-21 20:35:00,
2013-02-21 14:40:00,22.4,6.6,30.30,NNE,28,7.0,12.0,50,0.00,,CLR,0.00,VWS V14.01,2013-02-21 20:40:00,
2013-02-21 14:45:00,22.5,6.7,30.30,NNE,21,6.0,12.0,50,0.00,,CLR,0.00,VWS V14.01,2013-02-21 20:45:00,
2013-02-21 14:50:00,22.9,7.5,30.30,NNE,23,6.0,11.0,51,0.00,,CLR,0.00,VWS V14.01,2013-02-21 20:50:00,
2013-02-21 14:55:00,22.7,6.0,30.30,NNE,26,5.0,11.0,48,0.00,,CLR,0.00,VWS V14.01,2013-02-21 20:55:00,
2013-02-21 15:00:00,23.0,6.7,30.30,NNE,26,6.0,11.0,49,0.00,,CLR,0.00,VWS V14.01,2013-02-21 21:00:00,
2013-02-21 15:05:00,23.2,6.4,30.30,NE,42,4.0,10.0,48,0.00,,CLR,0.00,VWS V14.01,2013-02-21 21:05:00,
2013-02-21 15:10:00,23.5,6.7,30.30,NE,36,3.0,11.0,48,0.00,,CLR,0.00,VWS V14.01,2013-02-21 21:10:00,
2013-02-21 15:15:00,23.8,7.0,30.30,NNE,23,7.0,11.0,48,0.00,,,0.00,VWS V15.00,2013-02-21 21:15:00,
2013-02-21 15:16:00,23.6,6.8,30.30,NNE,21,1.0,11.0,48,0.00,,CLR,0.00,VWS V14.01,2013-02-21 21:16:00,
2013-02-21 15:21:00,23.9,7.5,30.30,NNE,21,4.0,9.0,49,0.00,,CLR,0.00,VWS V14.01,2013-02-21 21:21:00,
2013-02-21 15:26:00,23.9,7.5,30.30,NNE,32,5.0,10.0,49,0.00,,CLR,0.00,VWS V14.01,2013-02-21 21:26:00,
2013-02-21 15:30:00,23.9,7.1,30.29,NNE,26,0.0,10.0,48,0.00,,,0.00,VWS V15.00,2013-02-21 21:30:00,
2013-02-21 15:31:00,23.9,7.5,30.30,NNE,26,3.0,10.0,49,0.00,,CLR,0.00,VWS V14.01,2013-02-21 21:31:00,
2013-02-21 15:36:00,24.1,7.3,30.29,ENE,73,3.0,13.0,48,0.00,,CLR,0.00,VWS V14.01,2013-02-21 21:36:00,
2013-02-21 15:41:00,23.9,7.1,30.29,NNE,14,6.0,13.0,48,0.00,,CLR,0.00,VWS V14.01,2013-02-21 21:41:00,
2013-02-21 15:45:00,23.9,7.5,30.28,NE,53,7.0,15.0,49,0.00,,,0.00,VWS V15.00,2013-02-21 21:45:00,
2013-02-21 15:46:00,23.9,7.1,30.29,NE,38,13.0,13.0,48,0.00,,CLR,0.00,VWS V14.01,2013-02-21 21:46:00,
2013-02-21 15:51:00,23.8,7.9,30.28,NE,37,5.0,13.0,50,0.00,,CLR,0.00,VWS V14.01,2013-02-21 21:51:00,
2013-02-21 15:56:00,23.6,7.3,30.28,NE,40,10.0,13.0,49,0.00,,CLR,0.00,VWS V14.01,2013-02-21 21:56:00,
2013-02-21 16:00:00,23.5,7.6,30.28,NNE,16,8.0,13.0,50,0.00,,,0.00,VWS V15.00,2013-02-21 22:00:00,
2013-02-21 16:01:00,23.6,8.1,30.28,NNE,26,7.0,13.0,51,0.00,,CLR,0.00,VWS V14.01,2013-02-21 22:01:00,
2013-02-21 16:06:00,23.3,7.4,30.28,NE,39,3.0,10.0,50,0.00,,CLR,0.00,VWS V14.01,2013-02-21 22:06:00,
2013-02-21 16:11:00,23.3,7.9,30.28,NE,49,5.0,13.0,51,0.00,,CLR,0.00,VWS V14.01,2013-02-21 22:11:00,
2013-02-21 16:15:00,23.2,7.8,30.27,NNE,24,6.0,17.0,51,0.00,,,0.00,VWS V15.00,2013-02-21 22:15:00,
2013-02-21 16:16:00,23.2,7.8,30.27,NE,45,5.0,17.0,51,0.00,,CLR,0.00,VWS V14.01,2013-02-21 22:16:00,
2013-02-21 16:21:00,23.0,7.6,30.27,NNE,33,10.0,13.0,51,0.00,,CLR,0.00,VWS V14.01,2013-02-21 22:21:00,
2013-02-21 16:26:00,23.0,8.0,30.27,NE,52,10.0,14.0,52,0.00,,CLR,0.00,VWS V14.01,2013-02-21 22:26:00,
2013-02-21 16:30:00,23.0,8.0,30.27,NNE,31,2.0,14.0,52,0.00,,,0.00,VWS V15.00,2013-02-21 22:30:00,
2013-02-21 16:31:00,23.0,8.0,30.27,NNE,28,6.0,14.0,52,0.00,,CLR,0.00,VWS V14.01,2013-02-21 22:31:00,
2013-02-21 16:36:00,22.9,8.3,30.27,NE,45,2.0,12.0,53,0.00,,CLR,0.00,VWS V14.01,2013-02-21 22:36:00,
2013-02-21 16:41:00,22.9,8.8,30.27,NE,37,0.0,12.0,54,0.00,,CLR,0.00,VWS V14.01,2013-02-21 22:41:00,
2013-02-21 16:45:00,22.9,8.3,30.27,NE,38,3.0,12.0,53,0.00,,,0.00,VWS V15.00,2013-02-21 22:45:00,
2013-02-21 16:46:00,22.9,8.3,30.27,NE,39,1.0,12.0,53,0.00,,CLR,0.00,VWS V14.01,2013-02-21 22:46:00,
2013-02-21 16:51:00,23.0,8.0,30.27,NE,42,0.0,7.0,52,0.00,,CLR,0.00,VWS V14.01,2013-02-21 22:51:00,
2013-02-21 16:56:00,23.0,8.4,30.27,NE,35,2.0,7.0,53,0.00,,CLR,0.00,VWS V14.01,2013-02-21 22:56:00,
2013-02-21 17:00:00,22.9,8.8,30.27,NE,35,1.0,7.0,54,0.00,,,0.00,VWS V15.00,2013-02-21 23:00:00,
2013-02-21 17:01:00,22.9,8.8,30.27,NE,35,2.0,7.0,54,0.00,,CLR,0.00,VWS V14.01,2013-02-21 23:01:00,
2013-02-21 17:06:00,22.9,8.8,30.27,NNE,33,4.0,9.0,54,0.00,,CLR,0.00,VWS V14.01,2013-02-21 23:06:00,
2013-02-21 17:11:00,22.7,9.0,30.27,NNE,29,0.0,9.0,55,0.00,,CLR,0.00,VWS V14.01,2013-02-21 23:11:00,
2013-02-21 17:15:00,22.5,8.8,30.25,NNE,30,0.0,9.0,55,0.00,,,0.00,VWS V15.00,2013-02-21 23:15:00,
2013-02-21 17:16:00,22.5,8.8,30.25,NNE,30,3.0,9.0,55,0.00,,CLR,0.00,VWS V14.01,2013-02-21 23:16:00,
2013-02-21 17:21:00,22.5,8.8,30.25,NNE,29,3.0,5.0,55,0.00,,CLR,0.00,VWS V14.01,2013-02-21 23:21:00,
2013-02-21 17:26:00,22.4,8.7,30.25,NNE,29,0.0,6.0,55,0.00,,CLR,0.00,VWS V14.01,2013-02-21 23:26:00,
2013-02-21 17:30:00,22.2,8.5,30.24,NNE,28,0.0,6.0,55,0.00,,,0.00,VWS V15.00,2013-02-21 23:30:00,
2013-02-21 17:31:00,22.2,8.5,30.24,NNE,28,4.0,6.0,55,0.00,,CLR,0.00,VWS V14.01,2013-02-21 23:31:00,
2013-02-21 17:36:00,22.2,8.5,30.24,NNE,28,1.0,4.0,55,0.00,,CLR,0.00,VWS V14.01,2013-02-21 23:36:00,
2013-02-21 17:41:00,22.1,8.4,30.24,NNE,28,5.0,5.0,55,0.00,,CLR,0.00,VWS V14.01,2013-02-21 23:41:00,
2013-02-21 17:45:00,21.9,8.6,30.23,NNE,28,3.0,6.0,56,0.00,,,0.00,VWS V15.00,2013-02-21 23:45:00,
2013-02-21 17:47:00,21.9,8.6,30.23,NNE,28,2.0,6.0,56,0.00,,CLR,0.00,VWS V14.01,2013-02-21 23:47:00,
2013-02-21 17:52:00,21.8,8.9,30.23,NE,40,3.0,10.0,57,0.00,,CLR,0.00,VWS V14.01,2013-02-21 23:52:00,
2013-02-21 17:57:00,21.8,8.5,30.23,NNE,31,3.0,10.0,56,0.00,,CLR,0.00,VWS V14.01,2013-02-21 23:57:00,
2013-02-21 18:00:00,21.8,8.5,30.22,NNE,30,5.0,10.0,56,0.00,,,0.00,VWS V15.00,2013-02-22 00:00:00,
2013-02-21 18:02:00,21.8,8.9,30.22,NNE,30,5.0,10.0,57,0.00,,CLR,0.00,VWS V14.01,2013-02-22 00:02:00,
2013-02-21 18:07:00,21.8,9.3,30.22,NNE,30,2.0,6.0,58,0.00,,CLR,0.00,VWS V14.01,2013-02-22 00:07:00,
2013-02-21 18:12:00,21.8,8.9,30.22,NNE,32,5.0,7.0,57,0.00,,CLR,0.00,VWS V14.01,2013-02-22 00:12:00,
2013-02-21 18:15:00,21.9,9.0,30.22,NNE,33,3.0,7.0,57,0.00,,,0.00,VWS V15.00,2013-02-22 00:15:00,
2013-02-21 18:17:00,21.9,9.0,30.22,NNE,33,3.0,7.0,57,0.00,,CLR,0.00,VWS V14.01,2013-02-22 00:17:00,
2013-02-21 18:22:00,21.9,9.0,30.22,NE,36,2.0,6.0,57,0.00,,CLR,0.00,VWS V14.01,2013-02-22 00:22:00,
2013-02-21 18:27:00,22.1,9.2,30.22,NE,41,4.0,6.0,57,0.00,,CLR,0.00,VWS V14.01,2013-02-22 00:27:00,
2013-02-21 18:30:00,22.1,9.2,30.22,NE,41,0.0,6.0,57,0.00,,,0.00,VWS V15.00,2013-02-22 00:30:00,
2013-02-21 18:32:00,22.1,9.2,30.22,NE,41,0.0,0.0,57,0.00,,CLR,0.00,VWS V14.01,2013-02-22 00:32:00,
2013-02-21 18:37:00,22.2,9.7,30.22,NE,37,3.0,6.0,58,0.00,,CLR,0.00,VWS V14.01,2013-02-22 00:37:00,
2013-02-21 18:42:00,22.1,9.2,30.22,NNE,33,4.0,6.0,57,0.00,,CLR,0.00,VWS V14.01,2013-02-22 00:42:00,
2013-02-21 18:45:00,21.8,9.3,30.21,NNE,25,2.0,6.0,58,0.00,,,0.00,VWS V15.00,2013-02-22 00:45:00,
2013-02-21 18:47:00,21.8,9.3,30.21,NNE,25,2.0,2.0,58,0.00,,CLR,0.00,VWS V14.01,2013-02-22 00:47:00,
2013-02-21 18:52:00,21.6,9.1,30.21,NNE,23,1.0,6.0,58,0.00,,CLR,0.00,VWS V14.01,2013-02-22 00:52:00,
2013-02-21 18:57:00,21.6,9.1,30.21,NNE,23,2.0,8.0,58,0.00,,CLR,0.00,VWS V14.01,2013-02-22 00:57:00,
2013-02-21 19:00:00,21.8,9.7,30.20,NNE,21,5.0,8.0,59,0.00,,,0.00,VWS V15.00,2013-02-22 01:00:00,
2013-02-21 19:02:00,21.8,9.7,30.20,NNE,21,2.0,5.0,59,0.00,,CLR,0.00,VWS V14.01,2013-02-22 01:02:00,
2013-02-21 19:07:00,21.9,9.8,30.20,NNE,17,5.0,7.0,59,0.00,,CLR,0.00,VWS V14.01,2013-02-22 01:07:00,
2013-02-21 19:12:00,22.2,10.1,30.20,NNE,23,5.0,7.0,59,0.00,,CLR,0.00,VWS V14.01,2013-02-22 01:12:00,
2013-02-21 19:15:00,22.2,10.4,30.19,NNE,21,3.0,7.0,60,0.00,,,0.00,VWS V15.00,2013-02-22 01:15:00,
2013-02-21 19:17:00,22.2,10.4,30.19,NNE,21,3.0,5.0,60,0.00,,CLR,0.00,VWS V14.01,2013-02-22 01:17:00,
2013-02-21 19:22:00,22.2,10.8,30.19,NNE,18,1.0,5.0,61,0.00,,CLR,0.00,VWS V14.01,2013-02-22 01:22:00,
2013-02-21 19:27:00,22.2,10.8,30.19,NNE,26,2.0,7.0,61,0.00,,CLR,0.00,VWS V14.01,2013-02-22 01:27:00,
2013-02-21 19:30:00,22.2,11.2,30.19,NNE,25,6.0,7.0,62,0.00,,,0.00,VWS V15.00,2013-02-22 01:30:00,
2013-02-21 19:32:00,22.2,11.2,30.19,NNE,23,5.0,6.0,62,0.00,,CLR,0.00,VWS V14.01,2013-02-22 01:32:00,
2013-02-21 19:37:00,22.4,11.7,30.19,NE,50,11.0,11.0,63,0.00,,CLR,0.00,VWS V14.01,2013-02-22 01:37:00,
2013-02-21 19:42:00,22.4,12.1,30.19,NNE,23,0.0,11.0,64,0.00,,CLR,0.00,VWS V14.01,2013-02-22 01:42:00,
2013-02-21 19:45:00,22.4,12.4,30.18,NNE,14,3.0,12.0,65,0.00,,,0.00,VWS V15.00,2013-02-22 01:45:00,
2013-02-21 19:47:00,22.4,12.4,30.18,North,10,0.0,3.0,65,0.00,,CLR,0.00,VWS V14.01,2013-02-22 01:47:00,
2013-02-21 19:52:00,22.4,12.4,30.18,NNE,31,5.0,15.0,65,0.00,,CLR,0.00,VWS V14.01,2013-02-22 01:52:00,
2013-02-21 19:57:00,22.4,12.8,30.18,NNE,33,6.0,15.0,66,0.00,,CLR,0.00,VWS V14.01,2013-02-22 01:57:00,
2013-02-21 20:00:00,22.4,12.8,30.19,NE,35,1.0,15.0,66,0.00,,,0.00,VWS V15.00,2013-02-22 02:00:00,
2013-02-21 20:02:00,22.2,12.6,30.19,NE,37,1.0,4.0,66,0.00,,CLR,0.00,VWS V14.01,2013-02-22 02:02:00,
2013-02-21 20:07:00,22.2,12.6,30.19,NNE,16,3.0,13.0,66,0.00,,CLR,0.00,VWS V14.01,2013-02-22 02:07:00,
2013-02-21 20:13:00,22.1,12.8,30.19,NNE,30,12.0,13.0,67,0.00,,CLR,0.00,VWS V14.01,2013-02-22 02:13:00,
2013-02-21 20:15:00,21.9,13.0,30.18,NNE,18,7.0,14.0,68,0.00,,,0.00,VWS V15.00,2013-02-22 02:15:00,
2013-02-21 20:18:00,21.9,13.0,30.18,NE,45,10.0,13.0,68,0.00,,CLR,0.00,VWS V14.01,2013-02-22 02:18:00,
2013-02-21 20:23:00,21.9,13.0,30.18,NNE,23,6.0,14.0,68,0.00,,CLR,0.00,VWS V14.01,2013-02-22 02:23:00,
2013-02-21 20:28:00,21.8,13.2,30.18,North,4,11.0,14.0,69,0.00,,CLR,0.00,VWS V14.01,2013-02-22 02:28:00,
2013-02-21 20:30:00,21.6,13.0,30.18,NE,43,9.0,14.0,69,0.00,,,0.00,VWS V15.00,2013-02-22 02:30:00,
2013-02-21 20:33:00,21.6,13.0,30.18,NNE,19,13.0,13.0,69,0.00,,CLR,0.00,VWS V14.01,2013-02-22 02:33:00,
2013-02-21 20:38:00,21.6,13.3,30.18,NNE,23,9.0,14.0,70,0.00,,CLR,0.00,VWS V14.01,2013-02-22 02:38:00,
2013-02-21 20:43:00,21.4,13.5,30.18,NNE,27,4.0,15.0,71,0.00,,CLR,0.00,VWS V14.01,2013-02-22 02:43:00,
2013-02-21 20:45:00,21.3,13.7,30.17,NNE,28,8.0,15.0,72,0.00,,,0.00,VWS V15.00,2013-02-22 02:45:00,
2013-02-21 20:48:00,21.3,13.7,30.17,NE,42,3.0,9.0,72,0.00,,CLR,0.00,VWS V14.01,2013-02-22 02:48:00,
2013-02-21 20:53:00,21.1,13.5,30.17,NNE,32,11.0,11.0,72,0.00,,CLR,0.00,VWS V14.01,2013-02-22 02:53:00,
2013-02-21 20:58:00,21.1,13.8,30.17,NNE,33,5.0,15.0,73,0.00,,CLR,0.00,VWS V14.01,2013-02-22 02:58:00,
2013-02-21 21:00:00,21.1,13.8,30.17,NE,34,6.0,15.0,73,0.00,,,0.00,VWS V15.00,2013-02-22 03:00:00,
2013-02-21 21:03:00,21.0,13.7,30.17,NNE,25,9.0,9.0,73,0.00,,CLR,0.00,VWS V14.01,2013-02-22 03:03:00,
2013-02-21 21:08:00,21.0,13.7,30.17,NNE,24,6.0,11.0,73,0.00,,CLR,0.00,VWS V14.01,2013-02-22 03:08:00,
2013-02-21 21:13:00,21.0,14.0,30.17,NE,40,6.0,11.0,74,0.00,,CLR,0.00,VWS V14.01,2013-02-22 03:13:00,
2013-02-21 21:15:00,20.8,13.8,30.16,NNE,21,4.0,11.0,74,0.00,,,0.00,VWS V15.00,2013-02-22 03:15:00,
2013-02-21 21:18:00,20.8,13.8,30.16,NNE,21,6.0,8.0,74,0.00,,CLR,0.00,VWS V14.01,2013-02-22 03:18:00,
2013-02-21 21:23:00,20.8,13.8,30.16,NNE,28,2.0,14.0,74,0.00,,CLR,0.00,VWS V14.01,2013-02-22 03:23:00,
2013-02-21 21:28:00,20.8,14.1,30.16,NNE,23,6.0,14.0,75,0.00,,CLR,0.00,VWS V14.01,2013-02-22 03:28:00,
2013-02-21 21:30:00,20.6,13.9,30.15,NNE,22,4.0,14.0,75,0.00,,,0.00,VWS V15.00,2013-02-22 03:30:00,
2013-02-21 21:33:00,20.6,13.9,30.15,NNE,27,10.0,13.0,75,0.00,,CLR,0.00,VWS V14.01,2013-02-22 03:33:00,
2013-02-21 21:38:00,20.6,13.9,30.15,NNE,18,6.0,13.0,75,0.00,,CLR,0.00,VWS V14.01,2013-02-22 03:38:00,
2013-02-21 21:43:00,20.6,13.9,30.15,NE,36,8.0,13.0,75,0.00,,CLR,0.00,VWS V14.01,2013-02-22 03:43:00,
2013-02-21 21:45:00,20.5,14.1,30.14,NE,40,13.0,13.0,76,0.00,,,0.00,VWS V15.00,2013-02-22 03:45:00,
2013-02-21 21:48:00,20.5,14.1,30.14,NNE,30,5.0,13.0,76,0.00,,CLR,0.00,VWS V14.01,2013-02-22 03:48:00,
2013-02-21 21:53:00,20.6,14.2,30.14,NE,37,6.0,13.0,76,0.00,,CLR,0.00,VWS V14.01,2013-02-22 03:53:00,
2013-02-21 21:58:00,20.6,14.2,30.14,NNE,25,8.0,13.0,76,0.00,,CLR,0.00,VWS V14.01,2013-02-22 03:58:00,
2013-02-21 22:00:00,20.6,14.2,30.14,NNE,30,4.0,13.0,76,0.00,,,0.00,VWS V15.00,2013-02-22 04:00:00,
2013-02-21 22:04:00,20.6,14.2,30.14,NE,35,2.0,7.0,76,0.00,,CLR,0.00,VWS V14.01,2013-02-22 04:04:00,
2013-02-21 22:09:00,20.5,14.1,30.14,NE,34,4.0,8.0,76,0.00,,CLR,0.00,VWS V14.01,2013-02-22 04:09:00,
2013-02-21 22:14:00,20.5,14.1,30.14,NNE,33,3.0,12.0,76,0.00,,CLR,0.00,VWS V14.01,2013-02-22 04:14:00,
2013-02-21 22:15:00,20.5,14.1,30.14,NE,43,7.0,12.0,76,0.00,,,0.00,VWS V15.00,2013-02-22 04:15:00,
2013-02-21 22:19:00,20.5,14.1,30.14,NNE,30,11.0,13.0,76,0.00,,CLR,0.00,VWS V14.01,2013-02-22 04:19:00,
2013-02-21 22:24:00,20.5,14.4,30.14,North,11,3.0,13.0,77,0.00,,CLR,0.00,VWS V14.01,2013-02-22 04:24:00,
2013-02-21 22:29:00,20.5,14.4,30.14,NE,40,6.0,13.0,77,0.00,,CLR,0.00,VWS V14.01,2013-02-22 04:29:00,
2013-02-21 22:30:00,20.5,14.4,30.13,NNE,31,6.0,13.0,77,0.00,,,0.00,VWS V15.00,2013-02-22 04:30:00,
2013-02-21 22:34:00,20.5,14.4,30.13,NNE,21,5.0,10.0,77,0.00,,SCT120,0.00,VWS V14.01,2013-02-22 04:34:00,
2013-02-21 22:39:00,20.5,14.4,30.13,NNE,19,6.0,12.0,77,0.00,,SCT120,0.00,VWS V14.01,2013-02-22 04:39:00,
2013-02-21 22:44:00,20.5,14.4,30.13,NNE,17,8.0,12.0,77,0.00,,SCT120,0.00,VWS V14.01,2013-02-22 04:44:00,
2013-02-21 22:45:00,20.5,14.4,30.12,NNE,26,0.0,12.0,77,0.00,,,0.00,VWS V15.00,2013-02-22 04:45:00,
2013-02-21 22:49:00,20.5,14.4,30.12,NNE,26,2.0,7.0,77,0.00,,SCT120,0.00,VWS V14.01,2013-02-22 04:49:00,
2013-02-21 22:54:00,20.5,14.4,30.12,NNE,28,3.0,11.0,77,0.00,,SCT120,0.00,VWS V14.01,2013-02-22 04:54:00,
2013-02-21 22:59:00,20.5,14.4,30.12,NE,39,3.0,11.0,77,0.00,,SCT120,0.00,VWS V14.01,2013-02-22 04:59:00,
2013-02-21 23:00:00,20.5,14.4,30.12,NNE,16,7.0,11.0,77,0.00,,SCT120,0.00,VWS V14.01,2013-02-22 05:00:00,
2013-02-21 23:01:00,20.5,14.4,30.11,NE,42,11.0,11.0,77,0.00,,SCT120,0.00,VWS V14.01,2013-02-22 05:01:00,
2013-02-21 23:02:00,20.5,14.4,30.11,NNE,26,9.0,11.0,77,0.00,,SCT120,0.00,VWS V14.01,2013-02-22 05:02:00,
2013-02-21 23:05:00,20.5,14.4,30.11,NE,49,8.0,13.0,77,0.00,,SCT120,0.00,VWS V14.01,2013-02-22 05:05:00,
2013-02-21 23:10:00,20.5,14.7,30.11,NNE,26,0.0,13.0,78,0.00,,SCT120,0.00,VWS V14.01,2013-02-22 05:10:00,
2013-02-21 23:15:00,20.5,14.7,30.11,NE,36,5.0,13.0,78,0.00,,SCT120,0.00,VWS V14.01,2013-02-22 05:15:00,
2013-02-21 23:20:00,20.3,14.6,30.10,NNE,31,9.0,11.0,78,0.00,,SCT120,0.00,VWS V14.01,2013-02-22 05:20:00,
2013-02-21 23:25:00,20.5,14.7,30.10,NNE,23,7.0,11.0,78,0.00,,SCT120,0.00,VWS V14.01,2013-02-22 05:25:00,
2013-02-21 23:30:00,20.5,14.7,30.10,NE,50,4.0,11.0,78,0.00,,SCT120,0.00,VWS V14.01,2013-02-22 05:30:00,
2013-02-21 23:35:00,20.3,14.6,30.10,NE,38,8.0,10.0,78,0.00,,CLR,0.00,VWS V14.01,2013-02-22 05:35:00,
2013-02-21 23:41:00,20.3,14.6,30.10,NNE,29,7.0,11.0,78,0.00,,CLR,0.00,VWS V14.01,2013-02-22 05:41:00,
2013-02-21 23:45:00,20.0,14.3,30.10,NNE,28,5.0,12.0,78,0.00,,,0.00,VWS V15.00,2013-02-22 05:45:00,
2013-02-21 23:46:00,20.2,14.4,30.10,NNE,33,5.0,12.0,78,0.00,,CLR,0.00,VWS V14.01,2013-02-22 05:46:00,
2013-02-21 23:51:00,20.2,14.7,30.10,NNE,23,0.0,10.0,79,0.00,,CLR,0.00,VWS V14.01,2013-02-22 05:51:00,
2013-02-21 23:56:00,20.2,14.7,30.10,NE,42,4.0,13.0,79,0.00,,CLR,0.00,VWS V14.01,2013-02-22 05:56:00,